EST,Max TemperatureF,Mean TemperatureF,Min TemperatureF,Max Dew PointF,MeanDew PointF,Min DewpointF,Max Humidity, Mean Humidity, Min Humidity, Max Sea Level PressureIn, Mean Sea Level PressureIn, Min Sea Level PressureIn, Max VisibilityMiles, Mean VisibilityMiles, Min VisibilityMiles, Max Wind SpeedMPH, Mean Wind SpeedMPH, Max Gust SpeedMPH,PrecipitationIn, CloudCover, Events, WindDirDegrees
2012-11-1,49,46,43,34,32,26,61,56,44,29.78,29.72,29.67,10,10,10,14,4,22,0.00,7,,251
2012-11-2,51,46,41,32,29,25,66,52,40,29.99,29.85,29.76,10,10,10,21,8,29,0.00,5,,286
2012-11-3,45,38,32,31,30,28,88,63,54,30.12,30.08,29.99,10,10,10,18,10,25,0.00,7,Rain,307
2012-11-4,50,41,32,35,31,27,90,70,43,30.12,30.08,30.04,10,10,7,14,2,20,0.00,4,,346
2012-11-5,47,36,26,33,27,24,92,73,45,30.19,30.13,30.09,10,9,5,10,2,16,0.00,2,,353
2012-11-6,50,36,23,31,26,21,91,74,42,30.19,30.10,30.01,10,9,5,0,0,,0.00,0,,-1
2012-11-7,41,36,30,31,29,26,90,76,55,30.01,29.98,29.93,10,9,5,0,0,,0.00,3,,-1
2012-11-8,53,39,26,32,24,14,92,61,23,30.16,30.07,30.00,10,8,2,20,2,24,0.00,0,,320
2012-11-9,62,44,25,37,30,23,90,70,30,30.25,30.21,30.16,10,9,5,0,0,,0.00,0,,-1
2012-11-10,75,50,27,41,33,25,93,65,20,30.36,30.29,30.22,10,9,5,6,0,,0.00,0,,297
2012-11-11,74,52,30,43,36,28,94,64,23,30.45,30.37,30.30,10,10,5,8,0,,0.00,0,,166
2012-11-12,72,60,49,55,49,39,77,60,48,30.35,30.24,30.12,10,10,3,18,5,29,0.09,4,Rain,200
2012-11-13,49,40,30,39,28,24,85,62,40,30.52,30.41,30.27,10,10,7,14,3,20,0.04,3,Rain,323
2012-11-14,39,32,25,29,26,23,92,83,56,30.58,30.53,30.44,10,9,7,0,0,,0.00,4,,-1
2012-11-15,51,37,24,33,28,23,92,76,43,30.44,30.36,30.29,10,8,4,0,0,,0.00,0,,-1
2012-11-16,55,40,26,34,29,24,93,75,36,30.49,30.38,30.32,10,8,3,0,0,,0.00,0,,-1
2012-11-17,54,38,23,31,26,21,92,75,34,30.63,30.57,30.49,10,9,5,0,0,,0.00,0,,-1
2012-11-18,55,40,24,32,28,22,91,74,39,30.63,30.57,30.49,10,10,7,0,0,,0.00,1,,-1
2012-11-19,54,41,29,36,33,27,94,78,50,30.52,30.39,30.26,10,8,4,0,0,,0.00,4,,-1
2012-11-20,51,40,30,38,34,28,94,81,58,30.25,30.17,30.09,10,8,4,0,0,,0.00,2,,-1
2012-11-21,59,44,27,42,31,25,95,78,32,30.26,30.21,30.16,10,6,0,0,0,,0.00,3,Fog,-1
2012-11-22,64,44,23,33,28,21,92,71,23,30.30,30.23,30.13,10,9,5,0,0,,0.00,0,,-1
2012-11-23,69,46,24,45,31,22,91,65,32,30.12,29.95,29.78,10,10,7,23,4,40,0.00,3,,262
2012-11-24,39,36,32,24,19,16,60,52,42,30.09,30.03,29.96,10,10,10,21,11,32,0.00,7,,291
2012-11-25,54,42,30,23,17,12,68,41,20,30.08,29.99,29.87,10,10,10,14,3,24,0.00,3,Snow,265
2012-11-26,59,46,33,32,26,19,73,48,23,30.19,30.12,29.98,10,10,10,17,4,28,0.00,2,,276
2012-11-27,43,40,36,38,35,28,91,81,66,30.28,30.22,30.17,10,8,2,6,0,,0.17,8,Rain,335
2012-11-28,45,37,30,32,25,21,91,62,39,30.38,30.31,30.25,10,9,5,15,2,23,0.01,2,,266
2012-11-29,52,38,25,29,23,19,89,68,27,30.44,30.36,30.30,10,9,4,0,0,,0.00,0,,-1
2012-11-30,53,38,24,34,28,21,92,78,44,30.37,30.31,30.24,10,9,7,0,0,,0.00,1,,-1